Time;durP1;ratioP1;P1;durP2;ratioP2;P2;SDS_P1;SDS_P2;PMS_P1;PMS_P2;Temp;Humidity;BMP_temperature;BMP_pressure;BME280_temperature;BME280_humidity;BME280_pressure;Samples;Min_cycle;Max_cycle;Signal;HPM_P1;HPM_P2
2022/10/12 00:00:58;;;;;;;5.53;5.17;;;;;;;13.71;100.00;96047.78;4345758;32;20193;-61
2022/10/12 00:03:27;;;;;;;6.37;5.97;;;;;;;13.75;100.00;96051.41;4315717;32;20213;-60
2022/10/12 00:06:14;;;;;;;5.53;5.13;;;;;;;13.66;100.00;96041.75;4291688;33;20209;-60
2022/10/12 00:08:42;;;;;;;5.20;4.90;;;;;;;13.69;100.00;96036.63;4330422;32;20193;-59
2022/10/12 00:11:17;;;;;;;7.17;6.67;;;;;;;13.67;100.00;96044.13;4308372;32;20200;-59
2022/10/12 00:13:47;;;;;;;6.30;5.80;;;;;;;13.63;100.00;96043.13;4311097;32;20193;-59
2022/10/12 00:16:14;;;;;;;7.90;6.67;;;;;;;13.64;100.00;96038.59;4315333;32;20197;-59
2022/10/12 00:18:43;;;;;;;6.50;5.83;;;;;;;13.59;100.00;96036.78;4293793;32;20189;-60
2022/10/12 00:21:15;;;;;;;7.03;6.50;;;;;;;13.61;100.00;96039.97;4313206;32;20201;-60
2022/10/12 00:23:43;;;;;;;7.63;5.47;;;;;;;13.60;100.00;96035.72;4291544;33;20257;-60
2022/10/12 00:26:20;;;;;;;6.67;6.10;;;;;;;13.54;100.00;96044.09;4298970;32;20217;-60
2022/10/12 00:28:56;;;;;;;11.97;6.53;;;;;;;13.53;100.00;96037.97;4323859;32;20280;-60
2022/10/12 00:31:22;;;;;;;6.57;6.00;;;;;;;13.46;100.00;96026.91;4296895;33;20176;-59
2022/10/12 00:33:49;;;;;;;6.13;5.73;;;;;;;13.44;100.00;96037.06;4312992;33;20224;-59
2022/10/12 00:36:23;;;;;;;6.63;5.40;;;;;;;13.42;100.00;96036.56;4313215;32;20228;-59
2022/10/12 00:38:54;;;;;;;7.30;6.70;;;;;;;13.41;100.00;96035.00;4342184;32;20264;-59
2022/10/12 00:41:24;;;;;;;5.70;5.40;;;;;;;13.57;100.00;96036.28;4311230;33;20308;-59
2022/10/12 00:43:53;;;;;;;6.40;6.00;;;;;;;13.60;100.00;96038.37;4318607;32;20193;-60
2022/10/12 00:46:41;;;;;;;7.00;6.50;;;;;;;13.64;100.00;96028.72;4287681;33;20198;-60
2022/10/12 00:49:19;;;;;;;9.47;6.43;;;;;;;13.62;100.00;96030.09;4320478;32;20311;-60
2022/10/12 00:51:50;;;;;;;12.43;7.77;;;;;;;13.58;100.00;96034.41;4304300;33;20200;-59
2022/10/12 00:54:27;;;;;;;7.33;6.63;;;;;;;13.45;100.00;96036.00;4268082;33;20273;-59
2022/10/12 00:57:02;;;;;;;7.07;5.83;;;;;;;13.44;100.00;96037.06;4317585;33;20193;-59
2022/10/12 00:59:36;;;;;;;6.73;6.33;;;;;;;13.64;100.00;96042.03;4319003;33;20196;-60
2022/10/12 01:02:03;;;;;;;6.77;6.27;;;;;;;13.75;99.89;96035.44;4285698;33;20209;-60
2022/10/12 01:04:32;;;;;;;6.90;5.57;;;;;;;13.71;99.59;96033.66;4326923;33;20216;-59
2022/10/12 01:06:59;;;;;;;7.10;6.37;;;;;;;13.88;98.81;96039.19;4338004;32;20208;-59
2022/10/12 01:09:26;;;;;;;7.80;6.63;;;;;;;13.89;98.45;96038.13;4311945;33;20220;-59
2022/10/12 01:11:54;;;;;;;6.70;6.20;;;;;;;13.89;98.37;96042.66;4301626;33;20181;-59
2022/10/12 01:14:20;;;;;;;7.20;6.63;;;;;;;13.84;98.57;96034.75;4303385;32;20194;-60
2022/10/12 01:16:53;;;;;;;5.93;5.33;;;;;;;13.85;98.50;96033.66;4289391;33;20204;-60
2022/10/12 01:19:42;;;;;;;5.10;4.80;;;;;;;13.91;98.23;96037.81;4315638;33;20287;-60
2022/10/12 01:22:14;;;;;;;5.60;5.07;;;;;;;13.87;98.14;96034.16;4320985;33;20196;-60
2022/10/12 01:25:42;;;;;;;6.63;5.57;;;;;;;13.99;97.39;96039.78;4299752;33;20198;-60
2022/10/12 01:28:48;;;;;;;8.47;6.97;;;;;;;13.85;97.52;96033.66;4275660;33;20185;-60
2022/10/12 01:31:29;;;;;;;6.63;6.03;;;;;;;13.77;98.09;96035.91;4238909;33;20195;-59
2022/10/12 01:34:17;;;;;;;6.67;6.20;;;;;;;13.84;98.19;96040.88;4241318;33;20195;-59
2022/10/12 01:36:48;;;;;;;7.83;7.03;;;;;;;13.81;98.22;96033.47;4238627;33;20187;-60
2022/10/12 01:39:17;;;;;;;8.73;8.00;;;;;;;13.86;98.31;96037.91;4245410;33;20204;-59
2022/10/12 01:41:51;;;;;;;7.43;6.80;;;;;;;13.65;99.25;96032.97;4266483;33;20244;-59
2022/10/12 01:44:22;;;;;;;8.97;8.13;;;;;;;13.85;98.96;96039.00;4294258;33;20359;-59
2022/10/12 01:46:50;;;;;;;8.53;7.73;;;;;;;13.81;99.14;96038.78;4304300;32;20320;-59
2022/10/12 01:49:29;;;;;;;9.53;8.80;;;;;;;13.80;99.24;96034.53;4288223;33;20375;-59
2022/10/12 01:52:26;;;;;;;8.37;7.67;;;;;;;13.83;99.40;96039.28;4284256;33;20208;-59
2022/10/12 01:55:17;;;;;;;13.10;7.27;;;;;;;13.77;99.52;96038.59;4323268;32;20291;-59
2022/10/12 01:57:59;;;;;;;7.80;7.33;;;;;;;13.74;99.56;96039.19;4310691;33;20221;-59
2022/10/12 02:00:27;;;;;;;8.43;7.50;;;;;;;13.80;99.45;96036.41;4339639;32;20189;-60
2022/10/12 02:03:20;;;;;;;9.90;8.37;;;;;;;13.88;99.19;96039.19;4307931;33;20323;-60
2022/10/12 02:06:10;;;;;;;7.07;6.57;;;;;;;13.73;100.00;96034.94;4301418;33;20236;-59
2022/10/12 02:09:04;;;;;;;8.33;7.73;;;;;;;13.73;100.00;96040.25;4335369;32;20256;-60
2022/10/12 02:11:36;;;;;;;9.53;8.63;;;;;;;13.86;99.93;96036.03;4335411;32;20248;-62
2022/10/12 02:14:18;;;;;;;9.83;7.50;;;;;;;13.89;100.00;96027.44;4297545;33;20213;-59
2022/10/12 02:16:57;;;;;;;9.87;8.80;;;;;;;13.77;100.00;96033.25;4316791;33;20205;-60
2022/10/12 02:19:31;;;;;;;10.27;9.37;;;;;;;13.81;100.00;96024.66;4290873;33;20186;-59
2022/10/12 02:22:01;;;;;;;8.37;7.73;;;;;;;13.99;99.87;96026.44;4307076;33;20197;-60
2022/10/12 02:24:30;;;;;;;9.93;8.87;;;;;;;14.02;99.55;96025.84;4306280;33;20213;-60
2022/10/12 02:26:56;;;;;;;9.63;8.30;;;;;;;14.09;99.28;96024.38;4303751;33;20189;-59
2022/10/12 02:29:31;;;;;;;10.93;9.37;;;;;;;13.99;99.72;96023.78;4278262;33;20205;-59
2022/10/12 02:32:19;;;;;;;9.80;8.90;;;;;;;14.15;99.26;96017.03;4338392;32;20181;-59
2022/10/12 02:35:07;;;;;;;10.37;9.47;;;;;;;14.13;99.24;96021.91;4310577;33;20318;-60
2022/10/12 02:38:00;;;;;;;11.80;8.77;;;;;;;14.01;99.91;96022.41;4294749;33;20256;-60
2022/10/12 02:40:51;;;;;;;8.80;7.97;;;;;;;13.97;100.00;96028.63;4292355;33;20186;-60
2022/10/12 02:43:44;;;;;;;12.07;9.37;;;;;;;13.98;100.00;96020.31;4319388;32;20392;-60
2022/10/12 02:46:14;;;;;;;9.70;8.93;;;;;;;14.01;100.00;96025.06;4297174;33;20190;-59
2022/10/12 02:48:43;;;;;;;12.47;8.47;;;;;;;13.95;100.00;96017.44;4261943;33;20205;-60
2022/10/12 02:51:10;;;;;;;10.47;9.63;;;;;;;13.88;100.00;96017.88;4283655;33;20198;-60
2022/10/12 02:53:36;;;;;;;11.23;8.63;;;;;;;13.89;100.00;96013.31;4303623;33;20178;-60
2022/10/12 02:56:06;;;;;;;9.10;8.33;;;;;;;13.82;100.00;96016.38;4290947;33;20233;-59
2022/10/12 02:58:32;;;;;;;9.50;8.90;;;;;;;13.95;100.00;96012.13;4296652;33;20221;-60
2022/10/12 03:00:58;;;;;;;9.30;8.37;;;;;;;13.84;100.00;96011.53;4275735;33;20213;-59
2022/10/12 03:03:25;;;;;;;10.87;9.87;;;;;;;13.98;100.00;96009.66;4291815;33;20198;-59
2022/10/12 03:05:52;;;;;;;11.30;10.17;;;;;;;13.88;100.00;96007.19;4317842;33;20256;-59
2022/10/12 03:08:19;;;;;;;12.10;9.80;;;;;;;13.85;100.00;96005.13;4314630;32;20362;-59
2022/10/12 03:10:46;;;;;;;15.40;10.00;;;;;;;13.98;100.00;96000.84;4282180;33;20190;-59
2022/10/12 03:13:13;;;;;;;9.93;8.97;;;;;;;13.91;100.00;96011.16;4314743;33;20212;-59
2022/10/12 03:15:38;;;;;;;15.60;11.77;;;;;;;14.03;100.00;96008.75;4312621;32;20200;-60
2022/10/12 03:18:05;;;;;;;21.53;11.03;;;;;;;13.90;100.00;96009.56;4311402;33;20197;-59
2022/10/12 03:20:30;;;;;;;13.97;10.30;;;;;;;13.99;100.00;96005.09;4316353;32;20204;-61
2022/10/12 03:22:57;;;;;;;11.23;10.17;;;;;;;13.82;100.00;96007.59;4323956;33;20205;-60
2022/10/12 03:25:26;;;;;;;9.97;9.07;;;;;;;13.77;100.00;96006.59;4329073;32;20217;-59
2022/10/12 03:27:53;;;;;;;13.77;11.47;;;;;;;13.80;100.00;96004.41;4315672;33;20169;-59
2022/10/12 03:30:20;;;;;;;13.33;10.77;;;;;;;13.88;100.00;96009.88;4305075;32;20260;-60
2022/10/12 03:32:47;;;;;;;14.73;9.97;;;;;;;13.95;100.00;96004.91;4290849;33;20193;-60
2022/10/12 03:35:13;;;;;;;13.33;10.60;;;;;;;13.86;100.00;96004.03;4320526;32;20256;-61
2022/10/12 03:37:40;;;;;;;13.83;10.47;;;;;;;13.97;100.00;96004.59;4323439;33;20205;-60
2022/10/12 03:40:07;;;;;;;11.07;10.07;;;;;;;13.98;100.00;96006.19;4327718;32;20196;-60
2022/10/12 03:42:34;;;;;;;10.23;8.40;;;;;;;13.90;100.00;96006.91;4322118;32;20204;-60
2022/10/12 03:45:00;;;;;;;22.77;12.33;;;;;;;13.86;100.00;96008.56;4324209;32;20301;-59
2022/10/12 03:47:26;;;;;;;12.30;11.00;;;;;;;13.85;100.00;96001.66;4329237;33;20186;-59
2022/10/12 03:49:54;;;;;;;11.80;10.80;;;;;;;13.76;100.00;96010.34;4324930;32;20228;-59
2022/10/12 03:52:20;;;;;;;11.43;10.40;;;;;;;13.82;100.00;96007.59;4319630;32;20198;-59
2022/10/12 03:54:47;;;;;;;9.63;8.70;;;;;;;13.84;100.00;96011.53;4299352;32;20186;-59
2022/10/12 03:57:14;;;;;;;19.07;11.90;;;;;;;13.72;100.00;96014.69;4325517;32;20189;-59
2022/10/12 03:59:41;;;;;;;18.97;11.07;;;;;;;13.81;100.00;96014.00;4323793;32;20190;-60
2022/10/12 04:02:07;;;;;;;13.60;11.17;;;;;;;13.82;100.00;96013.72;4322104;32;20200;-60
2022/10/12 04:04:34;;;;;;;10.63;9.73;;;;;;;13.72;100.00;96020.00;4282741;33;20261;-59
2022/10/12 04:07:00;;;;;;;10.67;9.83;;;;;;;13.81;100.00;96014.00;4339804;32;20215;-60
2022/10/12 04:09:27;;;;;;;11.40;10.47;;;;;;;13.86;100.00;96006.69;4321141;32;20232;-60
2022/10/12 04:11:53;;;;;;;11.37;9.93;;;;;;;13.92;100.00;96018.06;4313874;32;20205;-59
2022/10/12 04:14:21;;;;;;;14.53;10.27;;;;;;;13.94;100.00;96022.00;4322085;32;20226;-59
2022/10/12 04:16:47;;;;;;;14.83;12.53;;;;;;;13.99;100.00;96013.91;4325244;32;20233;-59
2022/10/12 04:19:13;;;;;;;18.53;12.70;;;;;;;13.77;100.00;96013.78;4318709;32;20190;-59
2022/10/12 04:21:40;;;;;;;15.30;11.37;;;;;;;13.77;100.00;96013.78;4311034;32;20308;-60
2022/10/12 04:24:09;;;;;;;12.50;10.73;;;;;;;13.76;100.00;96010.34;4315625;32;20185;-59
2022/10/12 04:26:36;;;;;;;14.60;10.87;;;;;;;13.80;100.00;96012.41;4270734;32;20228;-59
2022/10/12 04:29:02;;;;;;;16.80;12.57;;;;;;;13.69;100.00;96017.97;4287998;33;20182;-60
2022/10/12 04:31:27;;;;;;;10.97;9.90;;;;;;;13.66;100.00;96005.22;4264964;33;20185;-59
2022/10/12 04:33:56;;;;;;;12.57;11.27;;;;;;;13.61;100.00;96018.62;4290061;33;20182;-59
2022/10/12 04:36:23;;;;;;;11.53;10.23;;;;;;;13.46;100.00;96020.78;4314284;32;20272;-59
2022/10/12 04:38:48;;;;;;;19.77;11.90;;;;;;;13.64;100.00;96025.25;4314973;32;20344;-59
2022/10/12 04:41:16;;;;;;;13.20;10.07;;;;;;;13.66;100.00;96023.88;4298384;33;20186;-59
2022/10/12 04:43:43;;;;;;;10.30;9.37;;;;;;;13.59;100.00;96026.12;4306724;33;20279;-60
2022/10/12 04:46:09;;;;;;;14.10;12.13;;;;;;;13.73;100.00;96024.25;4294177;33;20208;-59
2022/10/12 04:48:35;;;;;;;13.07;11.70;;;;;;;13.69;100.00;96020.63;4320996;32;20189;-59
2022/10/12 04:51:05;;;;;;;13.07;11.90;;;;;;;13.73;100.00;96024.25;4316422;32;20225;-67
2022/10/12 04:53:31;;;;;;;16.53;11.87;;;;;;;13.83;100.00;96025.16;4307629;33;20181;-60
2022/10/12 04:56:04;;;;;;;12.17;10.37;;;;;;;13.80;100.00;96025.75;4299235;33;20201;-59
2022/10/12 04:58:30;;;;;;;11.97;10.77;;;;;;;13.66;100.00;96021.22;4315746;33;20260;-59
2022/10/12 05:00:59;;;;;;;12.30;11.10;;;;;;;13.81;100.00;96025.47;4316317;33;20251;-59
2022/10/12 05:03:26;;;;;;;12.23;11.20;;;;;;;13.88;100.00;96025.06;4330728;33;20185;-59
2022/10/12 05:05:53;;;;;;;10.93;9.90;;;;;;;13.89;100.00;96022.13;4329439;32;20284;-59
2022/10/12 05:08:19;;;;;;;18.37;11.77;;;;;;;13.80;100.00;96020.41;4310613;32;20275;-59
2022/10/12 05:10:46;;;;;;;21.27;12.50;;;;;;;13.77;100.00;96019.91;4312205;32;20186;-59
2022/10/12 05:13:18;;;;;;;17.73;11.70;;;;;;;13.85;100.00;96026.44;4328318;32;20194;-59
2022/10/12 05:15:45;;;;;;;12.43;9.83;;;;;;;13.79;100.00;96019.62;4295859;33;20213;-58
2022/10/12 05:18:11;;;;;;;16.30;11.20;;;;;;;13.85;100.00;96023.00;4278561;32;20187;-59
2022/10/12 05:20:38;;;;;;;10.33;9.30;;;;;;;13.94;100.00;96026.53;4299848;33;20248;-60
2022/10/12 05:23:05;;;;;;;11.27;9.67;;;;;;;13.99;100.00;96023.78;4308284;32;20198;-60
2022/10/12 05:25:31;;;;;;;10.97;9.63;;;;;;;14.07;100.00;96025.75;4303245;32;20198;-62
2022/10/12 05:28:06;;;;;;;10.50;9.53;;;;;;;14.09;100.00;96026.25;4312086;32;20212;-59
2022/10/12 05:30:35;;;;;;;15.47;11.40;;;;;;;14.14;100.00;96031.47;4275779;33;20194;-62
2022/10/12 05:33:01;;;;;;;15.23;11.00;;;;;;;14.14;100.00;96026.12;4305535;33;20194;-66
2022/10/12 05:35:27;;;;;;;11.73;10.60;;;;;;;14.17;100.00;96030.09;4312353;33;20203;-60
2022/10/12 05:37:52;;;;;;;15.00;11.07;;;;;;;13.98;100.00;96027.53;4326427;32;20190;-60
2022/10/12 05:40:18;;;;;;;13.80;11.53;;;;;;;14.00;100.00;96030.69;4331360;32;20307;-60
2022/10/12 05:42:45;;;;;;;12.17;11.07;;;;;;;13.95;100.00;96025.44;4316206;33;20205;-59
2022/10/12 05:45:12;;;;;;;12.53;10.63;;;;;;;13.90;100.00;96025.56;4321568;32;20191;-59
2022/10/12 05:47:42;;;;;;;10.53;9.10;;;;;;;13.78;100.00;96028.72;4309821;33;20264;-59
2022/10/12 05:50:07;;;;;;;12.17;10.93;;;;;;;13.94;100.00;96030.00;4329265;32;20221;-59
2022/10/12 05:52:34;;;;;;;18.33;11.73;;;;;;;13.99;100.00;96031.78;4322443;32;20216;-59
2022/10/12 05:55:00;;;;;;;11.47;10.03;;;;;;;13.88;100.00;96035.75;4324294;33;20190;-59
2022/10/12 05:57:26;;;;;;;13.57;11.47;;;;;;;13.90;100.00;96041.56;4311958;33;20186;-59
2022/10/12 05:59:53;;;;;;;12.80;11.57;;;;;;;13.98;100.00;96039.00;4300124;32;20212;-60
2022/10/12 06:02:20;;;;;;;15.03;9.83;;;;;;;13.96;100.00;96049.16;4294589;32;20322;-59
2022/10/12 06:04:50;;;;;;;13.50;11.63;;;;;;;13.99;100.00;96050.44;4322732;32;20204;-59
2022/10/12 06:07:18;;;;;;;10.60;9.60;;;;;;;13.98;100.00;96054.19;4322321;32;20257;-59
2022/10/12 06:09:47;;;;;;;12.53;9.80;;;;;;;14.04;100.00;96053.03;4281787;33;20197;-60
2022/10/12 06:12:15;;;;;;;11.33;9.73;;;;;;;13.99;100.00;96055.78;4318255;32;20196;-59
2022/10/12 06:14:42;;;;;;;10.70;9.80;;;;;;;13.97;100.00;96047.28;4322659;32;20213;-59
2022/10/12 06:17:12;;;;;;;10.63;9.50;;;;;;;13.86;100.00;96054.72;4323231;32;20243;-59
2022/10/12 06:19:39;;;;;;;12.23;11.00;;;;;;;13.83;100.00;96057.97;4325028;32;20251;-59
2022/10/12 06:22:09;;;;;;;11.40;10.33;;;;;;;13.81;100.00;96060.13;4290027;33;20241;-60
2022/10/12 06:24:34;;;;;;;12.23;9.17;;;;;;;13.74;100.00;96047.16;4314708;32;20177;-59
2022/10/12 06:27:01;;;;;;;13.67;9.73;;;;;;;13.80;100.00;96053.22;4324481;32;20190;-60
2022/10/12 06:29:26;;;;;;;22.80;12.33;;;;;;;13.69;100.00;96046.50;4327009;32;20204;-59
2022/10/12 06:31:53;;;;;;;16.63;9.57;;;;;;;13.65;100.00;96054.28;4310441;32;20253;-60
2022/10/12 06:34:22;;;;;;;9.50;8.60;;;;;;;13.89;100.00;96061.34;4331348;32;20292;-60
2022/10/12 06:36:49;;;;;;;9.83;8.83;;;;;;;13.99;100.00;96047.78;4307658;32;20208;-59
2022/10/12 06:39:15;;;;;;;11.30;9.27;;;;;;;13.97;100.00;96061.41;4324535;32;20252;-59
2022/10/12 06:41:41;;;;;;;11.27;10.23;;;;;;;13.92;100.00;96061.53;4315455;33;20190;-59
2022/10/12 06:44:07;;;;;;;11.17;10.00;;;;;;;13.89;100.00;96066.66;4325555;32;20424;-59
2022/10/12 06:46:36;;;;;;;11.73;9.83;;;;;;;13.94;100.00;96069.22;4315984;32;20252;-59
2022/10/12 06:49:03;;;;;;;14.90;10.97;;;;;;;13.87;100.00;96058.97;4324735;32;20193;-67
2022/10/12 06:51:33;;;;;;;19.80;11.03;;;;;;;13.83;100.00;96063.28;4328845;32;20214;-66
2022/10/12 06:54:02;;;;;;;14.27;11.33;;;;;;;13.78;100.00;96066.06;4328097;32;20185;-59
2022/10/12 06:56:28;;;;;;;15.50;11.23;;;;;;;13.77;100.00;96064.47;4327979;32;20198;-44
2022/10/12 06:58:56;;;;;;;14.90;10.30;;;;;;;13.65;100.00;96072.97;4327543;32;20221;-46
2022/10/12 07:01:23;;;;;;;12.80;10.73;;;;;;;13.77;100.00;96067.94;4314616;33;20289;-44
2022/10/12 07:03:51;;;;;;;10.23;9.33;;;;;;;14.01;100.00;96067.75;4324695;32;20268;-45
2022/10/12 07:06:17;;;;;;;9.47;8.77;;;;;;;14.27;100.00;96068.03;4324258;32;20185;-45
2022/10/12 07:08:42;;;;;;;8.83;8.03;;;;;;;14.37;100.00;96073.16;4281790;33;20273;-47
2022/10/12 07:11:11;;;;;;;12.23;8.33;;;;;;;14.58;100.00;96067.44;4320071;32;20190;-45
2022/10/12 07:13:41;;;;;;;8.57;8.00;;;;;;;14.76;100.00;96069.16;4312370;32;20258;-45
2022/10/12 07:16:11;;;;;;;10.53;9.47;;;;;;;14.59;98.88;96069.81;4330324;32;20260;-44
2022/10/12 07:18:39;;;;;;;8.57;7.97;;;;;;;14.86;99.33;96070.84;4318627;33;20208;-48
2022/10/12 07:21:06;;;;;;;10.60;8.30;;;;;;;14.89;99.09;96070.22;4317757;32;20181;-46
2022/10/12 07:23:37;;;;;;;10.90;9.87;;;;;;;14.79;97.60;96071.22;4325798;32;20205;-47
2022/10/12 07:26:04;;;;;;;9.97;8.53;;;;;;;14.75;97.46;96072.94;4314720;32;20190;-45
2022/10/12 07:28:41;;;;;;;9.40;7.33;;;;;;;14.75;97.65;96076.41;4337407;32;20193;-49
2022/10/12 07:31:14;;;;;;;4.20;3.90;;;;;;;14.95;97.01;96071.72;4309158;32;20216;-48
2022/10/12 07:33:40;;;;;;;5.80;5.40;;;;;;;15.90;100.00;96067.75;4293155;33;20256;-46
2022/10/12 07:36:07;;;;;;;7.17;5.87;;;;;;;16.13;99.61;96079.19;4308690;33;20225;-45
2022/10/12 07:38:34;;;;;;;7.50;6.80;;;;;;;16.44;97.75;96087.94;4327390;32;20255;-47
2022/10/12 07:41:03;;;;;;;5.63;5.17;;;;;;;16.62;94.90;96088.00;4332233;32;20244;-45
2022/10/12 07:43:37;;;;;;;11.33;8.70;;;;;;;16.91;92.56;96090.91;4315748;33;20197;-45
2022/10/12 07:46:06;;;;;;;9.67;7.43;;;;;;;17.02;91.26;96089.50;4325531;32;20231;-45
2022/10/12 07:48:39;;;;;;;7.60;6.03;;;;;;;17.03;88.14;96091.06;4322845;32;20315;-44
2022/10/12 07:51:09;;;;;;;7.27;6.57;;;;;;;17.20;87.76;96089.50;4321254;32;20189;-45
2022/10/12 07:53:37;;;;;;;8.27;7.50;;;;;;;17.51;86.31;96096.22;4330753;32;20193;-45
2022/10/12 07:56:06;;;;;;;10.87;7.10;;;;;;;17.74;84.92;96091.50;4324847;32;20196;-43
2022/10/12 07:58:33;;;;;;;7.80;6.77;;;;;;;17.84;83.37;96093.84;4314762;32;20194;-45
2022/10/12 08:01:09;;;;;;;6.77;6.17;;;;;;;18.17;82.25;96096.72;4318545;32;20298;-48
2022/10/12 08:03:36;;;;;;;8.10;7.47;;;;;;;18.28;82.18;96102.53;4342152;32;20181;-44
2022/10/12 08:06:15;;;;;;;7.13;6.43;;;;;;;18.35;81.43;96102.00;4322766;32;20182;-43
2022/10/12 08:08:42;;;;;;;7.87;7.07;;;;;;;18.41;80.57;96101.53;4297898;32;20197;-46
2022/10/12 08:11:10;;;;;;;7.60;6.87;;;;;;;18.49;80.06;96092.63;4325254;32;20272;-60
2022/10/12 08:13:38;;;;;;;5.20;4.77;;;;;;;18.29;78.98;96092.59;4310600;32;20184;-60
2022/10/12 08:16:10;;;;;;;22.53;6.87;;;;;;;17.47;80.10;96100.66;4288341;33;20206;-59
2022/10/12 08:18:38;;;;;;;6.10;5.50;;;;;;;17.03;82.25;96095.66;4333641;32;20189;-60
2022/10/12 08:21:05;;;;;;;5.00;4.60;;;;;;;16.43;84.88;96099.75;4309555;32;20216;-59
2022/10/12 08:23:36;;;;;;;6.67;6.03;;;;;;;16.31;85.54;96099.56;4280005;33;20207;-60
2022/10/12 08:26:03;;;;;;;5.33;5.00;;;;;;;15.89;87.08;96105.53;4309451;32;20249;-60
2022/10/12 08:28:28;;;;;;;5.50;5.10;;;;;;;15.34;89.87;96100.47;4327459;32;20210;-56
2022/10/12 08:30:56;;;;;;;8.13;6.13;;;;;;;15.26;90.37;96098.50;4307572;33;20194;-58
2022/10/12 08:33:30;;;;;;;6.60;6.10;;;;;;;15.24;90.10;96100.69;4296353;32;20242;-59
2022/10/12 08:35:55;;;;;;;6.07;5.67;;;;;;;15.28;90.29;96099.00;4307252;33;20201;-59
2022/10/12 08:38:23;;;;;;;7.23;5.97;;;;;;;14.95;90.68;96104.56;4319101;33;20340;-59
2022/10/12 08:41:27;;;;;;;6.97;6.47;;;;;;;14.90;91.61;96104.66;4327753;32;20190;-59
2022/10/12 08:44:20;;;;;;;6.03;5.63;;;;;;;14.87;92.57;96096.47;4342863;32;20256;-59
2022/10/12 08:46:46;;;;;;;6.17;5.30;;;;;;;14.79;92.48;96106.75;4318966;32;20189;-59
2022/10/12 08:49:23;;;;;;;6.83;5.23;;;;;;;14.96;91.32;96100.78;4341287;32;20201;-59
2022/10/12 08:52:05;;;;;;;6.30;5.70;;;;;;;14.89;91.54;96103.09;4306612;33;20252;-60
2022/10/12 08:54:44;;;;;;;6.53;5.60;;;;;;;14.81;91.68;96103.78;4291666;33;20189;-61
2022/10/12 08:57:17;;;;;;;8.40;6.00;;;;;;;14.91;91.77;96108.91;4318225;33;20223;-60
2022/10/12 08:59:45;;;;;;;6.33;5.77;;;;;;;14.92;91.52;96107.81;4310680;33;20215;-61
2022/10/12 09:02:50;;;;;;;6.40;5.90;;;;;;;14.96;91.19;96103.47;4303210;33;20195;-60
2022/10/12 09:05:30;;;;;;;6.43;5.83;;;;;;;14.96;91.11;96106.16;4308954;32;20188;-60
2022/10/12 09:08:05;;;;;;;10.43;6.90;;;;;;;15.20;90.54;96115.75;4336277;32;20178;-60
2022/10/12 09:10:57;;;;;;;7.77;7.00;;;;;;;15.12;90.51;96118.06;4286004;33;20177;-61
2022/10/12 09:13:54;;;;;;;6.13;5.33;;;;;;;15.11;91.01;96116.47;4308165;33;20209;-60
2022/10/12 09:16:32;;;;;;;7.27;5.63;;;;;;;15.03;90.80;96114.50;4316851;32;20203;-60
2022/10/12 09:19:06;;;;;;;6.80;6.23;;;;;;;15.01;90.82;96113.22;4317492;33;20212;-62
2022/10/12 09:21:34;;;;;;;5.03;4.63;;;;;;;14.94;91.08;96108.31;4310660;32;20198;-59
2022/10/12 09:23:59;;;;;;;6.27;5.87;;;;;;;15.06;91.06;96108.56;4318322;33;20194;-60
2022/10/12 09:26:38;;;;;;;6.70;6.23;;;;;;;15.16;90.64;96114.78;4329550;33;20196;-60
2022/10/12 09:29:30;;;;;;;11.60;6.83;;;;;;;15.23;90.46;96112.47;4341662;32;20243;-59
2022/10/12 09:32:14;;;;;;;9.77;6.30;;;;;;;15.21;90.62;96117.31;4307103;33;20193;-58
2022/10/12 09:34:41;;;;;;;9.10;7.77;;;;;;;15.17;90.42;96119.84;4325376;33;20293;-60
2022/10/12 09:37:26;;;;;;;14.13;12.13;;;;;;;15.10;90.87;96119.44;4324086;33;20200;-59
2022/10/12 09:39:54;;;;;;;6.53;5.77;;;;;;;15.13;90.78;96124.19;4314570;32;20242;-58
2022/10/12 09:42:19;;;;;;;7.23;6.63;;;;;;;15.17;90.69;96116.38;4295469;33;20365;-58
2022/10/12 09:45:00;;;;;;;5.37;4.97;;;;;;;15.13;90.54;96114.31;4307485;33;20187;-60
2022/10/12 09:47:34;;;;;;;7.07;6.50;;;;;;;15.25;90.59;96119.09;4334334;32;20223;-60
2022/10/12 09:50:05;;;;;;;7.30;6.37;;;;;;;15.17;90.40;96122.50;4322286;33;20205;-58
2022/10/12 09:52:49;;;;;;;6.27;5.77;;;;;;;14.96;91.10;96116.03;4303492;32;20193;-61
2022/10/12 09:55:25;;;;;;;9.27;7.00;;;;;;;15.08;91.25;96109.06;4344489;32;20185;-62
2022/10/12 09:58:01;;;;;;;15.83;11.47;;;;;;;15.10;90.67;96109.56;4321629;32;20313;-61
2022/10/12 10:00:30;;;;;;;9.77;6.80;;;;;;;15.00;91.11;96111.66;4322627;32;20208;-67
2022/10/12 10:02:58;;;;;;;10.07;8.33;;;;;;;15.24;90.39;96103.34;4307643;32;20193;-60
2022/10/12 10:05:38;;;;;;;8.07;7.30;;;;;;;15.31;89.39;96106.41;4290183;33;20216;-60
2022/10/12 10:08:22;;;;;;;5.27;4.83;;;;;;;15.27;89.75;96110.78;4281373;33;20300;-60
2022/10/12 10:10:55;;;;;;;5.07;4.77;;;;;;;15.25;89.26;96115.63;4308570;33;20295;-60
2022/10/12 10:13:25;;;;;;;4.90;4.27;;;;;;;15.35;89.43;96110.84;4316454;33;20269;-60
2022/10/12 10:16:03;;;;;;;4.87;4.57;;;;;;;15.31;89.07;96109.09;4328268;32;20217;-60
2022/10/12 10:18:49;;;;;;;5.37;4.97;;;;;;;15.29;88.53;96108.59;4269838;33;20186;-61
2022/10/12 10:21:29;;;;;;;5.03;4.60;;;;;;;15.20;89.38;96100.50;4307555;32;20190;-60
2022/10/12 10:24:00;;;;;;;6.53;5.13;;;;;;;15.36;89.14;96111.66;4315325;33;20201;-60
2022/10/12 10:26:30;;;;;;;9.07;5.87;;;;;;;15.37;88.49;96106.00;4314550;33;20220;-60
2022/10/12 10:29:32;;;;;;;5.30;4.37;;;;;;;15.54;88.05;96110.66;4285797;32;20198;-61
2022/10/12 10:32:23;;;;;;;5.43;5.13;;;;;;;15.59;87.81;96109.78;4298046;32;20185;-68
2022/10/12 10:35:19;;;;;;;7.53;6.87;;;;;;;15.54;87.25;96110.66;4249470;32;20195;-60
2022/10/12 10:38:02;;;;;;;5.53;5.20;;;;;;;15.57;86.79;96109.28;4314234;33;20182;-60
2022/10/12 10:40:32;;;;;;;5.13;4.83;;;;;;;15.35;87.29;96110.84;4322926;32;20197;-61
2022/10/12 10:43:16;;;;;;;6.50;4.40;;;;;;;15.42;87.12;96103.16;4317689;32;20177;-61
2022/10/12 10:45:55;;;;;;;7.27;3.77;;;;;;;15.43;87.08;96103.97;4276888;32;20193;-61
2022/10/12 10:48:27;;;;;;;5.07;4.77;;;;;;;15.49;86.55;96102.75;4322147;32;20260;-60
2022/10/12 10:51:03;;;;;;;7.37;4.83;;;;;;;15.58;86.80;96098.28;4328364;32;20188;-60
2022/10/12 10:53:42;;;;;;;5.07;4.77;;;;;;;15.69;85.38;96096.94;4301608;32;20189;-60
2022/10/12 10:56:20;;;;;;;4.60;4.13;;;;;;;15.64;84.71;96097.06;4317526;32;20204;-59
2022/10/12 10:59:02;;;;;;;4.97;4.60;;;;;;;15.57;84.92;96094.03;4290633;32;20201;-60
2022/10/12 11:01:43;;;;;;;4.20;3.80;;;;;;;15.64;84.57;96094.38;4326741;32;20251;-59
2022/10/12 11:04:25;;;;;;;4.80;4.40;;;;;;;15.67;84.95;96099.13;4311047;32;20220;-59
2022/10/12 11:07:12;;;;;;;5.90;5.10;;;;;;;15.77;85.31;96096.19;4296782;32;20236;-59
2022/10/12 11:10:01;;;;;;;6.23;4.23;;;;;;;15.80;85.03;96092.88;4298181;33;20189;-57
2022/10/12 11:12:37;;;;;;;5.40;4.90;;;;;;;15.72;85.57;96088.28;4292558;33;20228;-59
2022/10/12 11:15:38;;;;;;;3.90;3.60;;;;;;;15.53;86.47;96085.00;4265400;33;20198;-58
2022/10/12 11:18:36;;;;;;;11.20;5.13;;;;;;;15.48;86.60;96080.56;4299876;32;20185;-59
2022/10/12 11:21:13;;;;;;;4.30;4.00;;;;;;;15.48;86.79;96085.91;4296986;33;20190;-57
2022/10/12 11:23:52;;;;;;;4.50;4.27;;;;;;;15.48;86.53;96083.25;4258600;33;20242;-59
2022/10/12 11:26:46;;;;;;;6.50;4.13;;;;;;;15.51;86.66;96083.72;4310215;33;20186;-59
2022/10/12 11:29:13;;;;;;;4.53;4.23;;;;;;;15.58;86.56;96082.25;4322612;32;20200;-59
2022/10/12 11:32:17;;;;;;;17.57;4.40;;;;;;;15.62;85.45;96082.41;4331820;32;20220;-60
2022/10/12 11:34:50;;;;;;;4.13;3.87;;;;;;;15.57;86.05;96082.56;4318327;32;20197;-57
2022/10/12 11:37:24;;;;;;;4.37;4.17;;;;;;;15.61;85.71;96070.13;4329544;32;20197;-59
2022/10/12 11:39:53;;;;;;;5.37;4.87;;;;;;;15.57;86.35;96064.62;4296106;33;20454;-60
2022/10/12 11:42:43;;;;;;;6.47;4.40;;;;;;;15.75;85.18;96065.50;4312601;32;20189;-60
2022/10/12 11:45:40;;;;;;;4.77;4.47;;;;;;;15.65;85.94;96057.72;4289288;33;20319;-60
2022/10/12 11:48:24;;;;;;;4.33;4.07;;;;;;;15.64;85.30;96066.84;4307392;32;20224;-59
2022/10/12 11:50:51;;;;;;;7.80;6.87;;;;;;;15.68;85.07;96068.59;4313552;33;20193;-59